Time;durP1;ratioP1;P1;durP2;ratioP2;P2;SDS_P1;SDS_P2;PMS_P1;PMS_P2;Temp;Humidity;BMP_temperature;BMP_pressure;BME280_temperature;BME280_humidity;BME280_pressure;Samples;Min_cycle;Max_cycle;Signal;HPM_P1;HPM_P2
2023/11/07 00:02:26;;;;;;;;;;;;;;;;;;5096017;28;19908;-74
2023/11/07 00:04:52;;;;;;;;;;;;;;;;;;5096197;28;19961;-75
2023/11/07 00:07:18;;;;;;;;;;;;;;;;;;5095419;28;19961;-74
2023/11/07 00:09:44;;;;;;;;;;;;;;;;;;5095604;28;19924;-75
2023/11/07 00:12:10;;;;;;;;;;;;;;;;;;5095820;28;19915;-74
2023/11/07 00:14:36;;;;;;;;;;;;;;;;;;5095414;28;19908;-74
2023/11/07 00:17:01;;;;;;;;;;;;;;;;;;5095974;28;19908;-75
2023/11/07 00:19:27;;;;;;;;;;;;;;;;;;5095641;28;19908;-75
2023/11/07 00:21:54;;;;;;;;;;;;;;;;;;5095262;28;19918;-75
2023/11/07 00:24:20;;;;;;;;;;;;;;;;;;5095595;28;19908;-75
2023/11/07 00:26:46;;;;;;;;;;;;;;;;;;5095569;28;19908;-75
2023/11/07 00:29:12;;;;;;;;;;;;;;;;;;5095013;28;20002;-75
2023/11/07 00:31:38;;;;;;;;;;;;;;;;;;5095572;28;19919;-75
2023/11/07 00:34:04;;;;;;;;;;;;;;;;;;5096007;28;20321;-75
2023/11/07 00:36:32;;;;;;;;;;;;;;;;;;5076818;28;19931;-75
2023/11/07 00:38:59;;;;;;;;;;;;;;;;;;5095304;28;19909;-75
2023/11/07 00:41:25;;;;;;;;;;;;;;;;;;5094898;28;19947;-75
2023/11/07 00:43:51;;;;;;;;;;;;;;;;;;5095193;28;19970;-75
2023/11/07 00:46:18;;;;;;;;;;;;;;;;;;5095264;28;19908;-75
2023/11/07 00:48:44;;;;;;;;;;;;;;;;;;5094799;28;19915;-75
2023/11/07 00:51:11;;;;;;;;;;;;;;;;;;5095027;28;19916;-74
2023/11/07 00:53:37;;;;;;;;;;;;;;;;;;5095054;28;19908;-75
2023/11/07 00:56:03;;;;;;;;;;;;;;;;;;5094665;28;19919;-75
2023/11/07 00:58:29;;;;;;;;;;;;;;;;;;5076804;28;19929;-75
2023/11/07 01:00:55;;;;;;;;;;;;;;;;;;5094859;28;19951;-75
2023/11/07 01:03:21;;;;;;;;;;;;;;;;;;5094408;28;19908;-75
2023/11/07 01:05:48;;;;;;;;;;;;;;;;;;5094791;28;19961;-75
2023/11/07 01:08:14;;;;;;;;;;;;;;;;;;5094723;28;20348;-74
2023/11/07 01:10:40;;;;;;;;;;;;;;;;;;5094213;28;19927;-75
2023/11/07 01:13:07;;;;;;;;;;;;;;;;;;5094639;28;19908;-75
2023/11/07 01:15:33;;;;;;;;;;;;;;;;;;5094692;28;19912;-74
2023/11/07 01:17:59;;;;;;;;;;;;;;;;;;5094263;28;19995;-75
2023/11/07 01:20:25;;;;;;;;;;;;;;;;;;5094088;28;19908;-75
2023/11/07 01:22:51;;;;;;;;;;;;;;;;;;5094558;28;19908;-75
2023/11/07 01:25:17;;;;;;;;;;;;;;;;;;5094158;28;20016;-75
2023/11/07 01:27:43;;;;;;;;;;;;;;;;;;5076293;28;20276;-75
2023/11/07 01:30:09;;;;;;;;;;;;;;;;;;5076141;28;20368;-75
2023/11/07 01:32:36;;;;;;;;;;;;;;;;;;5075760;28;19908;-74
2023/11/07 01:35:03;;;;;;;;;;;;;;;;;;5094287;28;19914;-75
2023/11/07 01:37:29;;;;;;;;;;;;;;;;;;5094288;28;19912;-75
2023/11/07 01:39:55;;;;;;;;;;;;;;;;;;5094675;28;20268;-75
2023/11/07 01:42:21;;;;;;;;;;;;;;;;;;5094285;28;19943;-75
2023/11/07 01:44:47;;;;;;;;;;;;;;;;;;5094081;28;20344;-75
2023/11/07 01:47:13;;;;;;;;;;;;;;;;;;5094118;28;20364;-75
2023/11/07 01:49:39;;;;;;;;;;;;;;;;;;5094345;28;20390;-74
2023/11/07 01:52:05;;;;;;;;;;;;;;;;;;5093673;28;20423;-75
2023/11/07 01:54:31;;;;;;;;;;;;;;;;;;5094005;28;20348;-75
2023/11/07 01:56:57;;;;;;;;;;;;;;;;;;5094050;28;19908;-75
2023/11/07 01:59:23;;;;;;;;;;;;;;;;;;5093573;28;19969;-75
2023/11/07 02:01:49;;;;;;;;;;;;;;;;;;5094509;28;19960;-75
2023/11/07 02:04:15;;;;;;;;;;;;;;;;;;5093851;28;19994;-75
2023/11/07 02:06:41;;;;;;;;;;;;;;;;;;5093455;28;20024;-75
2023/11/07 02:09:08;;;;;;;;;;;;;;;;;;5093514;28;19931;-75
2023/11/07 02:11:34;;;;;;;;;;;;;;;;;;5075710;28;20024;-75
2023/11/07 02:14:00;;;;;;;;;;;;;;;;;;5093498;28;19964;-74
2023/11/07 02:16:26;;;;;;;;;;;;;;;;;;5093813;28;19919;-74
2023/11/07 02:18:52;;;;;;;;;;;;;;;;;;5093752;28;20279;-75
2023/11/07 02:21:18;;;;;;;;;;;;;;;;;;5093476;28;19915;-74
2023/11/07 02:23:43;;;;;;;;;;;;;;;;;;5093920;28;19951;-75
2023/11/07 02:26:09;;;;;;;;;;;;;;;;;;5093672;28;19914;-75
2023/11/07 02:28:36;;;;;;;;;;;;;;;;;;5093317;28;19908;-75
2023/11/07 02:31:03;;;;;;;;;;;;;;;;;;5094201;28;19968;-75
2023/11/07 02:33:29;;;;;;;;;;;;;;;;;;5097768;28;19911;-75
2023/11/07 02:35:55;;;;;;;;;;;;;;;;;;5097366;28;20287;-74
2023/11/07 02:38:22;;;;;;;;;;;;;;;;;;5097680;28;19908;-75
2023/11/07 02:40:49;;;;;;;;;;;;;;;;;;5097738;28;19915;-75
2023/11/07 02:43:15;;;;;;;;;;;;;;;;;;5097586;28;19908;-75
2023/11/07 02:45:41;;;;;;;;;;;;;;;;;;5097596;28;19914;-75
2023/11/07 02:48:07;;;;;;;;;;;;;;;;;;5078875;28;19908;-75
2023/11/07 02:50:33;;;;;;;;;;;;;;;;;;5097526;28;19920;-74
2023/11/07 02:52:59;;;;;;;;;;;;;;;;;;5097480;28;19970;-74
2023/11/07 02:55:25;;;;;;;;;;;;;;;;;;5096985;28;19909;-75
2023/11/07 02:57:51;;;;;;;;;;;;;;;;;;5097339;28;19915;-75
2023/11/07 03:00:17;;;;;;;;;;;;;;;;;;5097247;28;19908;-75
2023/11/07 03:02:43;;;;;;;;;;;;;;;;;;5096738;28;19912;-75
2023/11/07 03:05:09;;;;;;;;;;;;;;;;;;5097139;28;19969;-75
2023/11/07 03:07:35;;;;;;;;;;;;;;;;;;5097218;28;19945;-75
2023/11/07 03:10:01;;;;;;;;;;;;;;;;;;5096361;28;19968;-75
2023/11/07 03:12:28;;;;;;;;;;;;;;;;;;5097063;28;19931;-74
2023/11/07 03:14:54;;;;;;;;;;;;;;;;;;5097378;28;19912;-74
2023/11/07 03:17:20;;;;;;;;;;;;;;;;;;5078356;28;19908;-75
2023/11/07 03:19:51;;;;;;;;;;;;;;;;;;5096964;28;20372;-75
2023/11/07 03:22:17;;;;;;;;;;;;;;;;;;5096956;28;19962;-74
2023/11/07 03:24:43;;;;;;;;;;;;;;;;;;5096322;28;19912;-74
2023/11/07 03:27:09;;;;;;;;;;;;;;;;;;5096897;28;19909;-75
2023/11/07 03:29:35;;;;;;;;;;;;;;;;;;5096593;28;19923;-75
2023/11/07 03:32:01;;;;;;;;;;;;;;;;;;5096281;28;19991;-75
2023/11/07 03:34:27;;;;;;;;;;;;;;;;;;5078245;28;19908;-74
2023/11/07 03:36:53;;;;;;;;;;;;;;;;;;5096299;28;20356;-75
2023/11/07 03:39:20;;;;;;;;;;;;;;;;;;5096016;28;19991;-75
2023/11/07 03:41:46;;;;;;;;;;;;;;;;;;5096027;28;19915;-75
2023/11/07 03:44:12;;;;;;;;;;;;;;;;;;5096000;28;19962;-74
2023/11/07 03:46:38;;;;;;;;;;;;;;;;;;5096374;28;19912;-74
2023/11/07 03:49:04;;;;;;;;;;;;;;;;;;5096164;28;19943;-74
2023/11/07 03:51:29;;;;;;;;;;;;;;;;;;5077671;28;19919;-74
2023/11/07 03:53:55;;;;;;;;;;;;;;;;;;5096361;28;19908;-74
2023/11/07 03:56:22;;;;;;;;;;;;;;;;;;5096139;28;19942;-75
2023/11/07 03:58:48;;;;;;;;;;;;;;;;;;5095709;28;20041;-75
2023/11/07 04:01:14;;;;;;;;;;;;;;;;;;5096090;28;19916;-74
2023/11/07 04:03:40;;;;;;;;;;;;;;;;;;5095987;28;20399;-74
2023/11/07 04:06:06;;;;;;;;;;;;;;;;;;5095888;28;19915;-74
2023/11/07 04:08:32;;;;;;;;;;;;;;;;;;5096132;28;20007;-75
2023/11/07 04:10:58;;;;;;;;;;;;;;;;;;5095698;28;19942;-75
2023/11/07 04:13:24;;;;;;;;;;;;;;;;;;5077343;28;20356;-74
2023/11/07 04:15:50;;;;;;;;;;;;;;;;;;5095706;28;20419;-75
2023/11/07 04:18:15;;;;;;;;;;;;;;;;;;5095736;28;20364;-74
2023/11/07 04:20:42;;;;;;;;;;;;;;;;;;5095511;28;20348;-74
2023/11/07 04:23:09;;;;;;;;;;;;;;;;;;5095663;28;19953;-75
2023/11/07 04:25:35;;;;;;;;;;;;;;;;;;5095575;28;20308;-74
2023/11/07 04:28:01;;;;;;;;;;;;;;;;;;5095160;28;19908;-75
2023/11/07 04:30:27;;;;;;;;;;;;;;;;;;5095629;28;20045;-75
2023/11/07 04:32:53;;;;;;;;;;;;;;;;;;5095412;28;19915;-75
2023/11/07 04:35:19;;;;;;;;;;;;;;;;;;5095012;28;20374;-75
2023/11/07 04:37:45;;;;;;;;;;;;;;;;;;5077194;28;19908;-75
2023/11/07 04:40:11;;;;;;;;;;;;;;;;;;5095245;28;19908;-75
2023/11/07 04:42:37;;;;;;;;;;;;;;;;;;5094861;28;19970;-75
2023/11/07 04:45:03;;;;;;;;;;;;;;;;;;5095426;28;20372;-74
2023/11/07 04:47:29;;;;;;;;;;;;;;;;;;5094804;28;20364;-74
2023/11/07 04:49:59;;;;;;;;;;;;;;;;;;5095096;28;19934;-74
2023/11/07 04:52:25;;;;;;;;;;;;;;;;;;5095108;28;19909;-74
2023/11/07 04:54:50;;;;;;;;;;;;;;;;;;5093780;28;20020;-74
2023/11/07 04:57:16;;;;;;;;;;;;;;;;;;5094936;28;19987;-74
2023/11/07 04:59:42;;;;;;;;;;;;;;;;;;5095057;28;19908;-74
2023/11/07 05:02:08;;;;;;;;;;;;;;;;;;5094386;28;19908;-73
2023/11/07 05:04:34;;;;;;;;;;;;;;;;;;5094753;28;19908;-74
2023/11/07 05:07:00;;;;;;;;;;;;;;;;;;5094749;28;19977;-74
2023/11/07 05:09:27;;;;;;;;;;;;;;;;;;5075765;28;22219;-74
2023/11/07 05:11:53;;;;;;;;;;;;;;;;;;5094640;28;20035;-74
2023/11/07 05:14:19;;;;;;;;;;;;;;;;;;5094501;28;19908;-74
2023/11/07 05:16:44;;;;;;;;;;;;;;;;;;5094154;28;19908;-74
2023/11/07 05:19:11;;;;;;;;;;;;;;;;;;5094512;28;20318;-74
2023/11/07 05:21:37;;;;;;;;;;;;;;;;;;5076395;28;20279;-75
2023/11/07 05:24:06;;;;;;;;;;;;;;;;;;5094036;28;20011;-74
2023/11/07 05:26:32;;;;;;;;;;;;;;;;;;5094323;28;19914;-74
2023/11/07 05:28:58;;;;;;;;;;;;;;;;;;5094324;28;20010;-74
2023/11/07 05:31:24;;;;;;;;;;;;;;;;;;5093781;28;19916;-74
2023/11/07 05:33:50;;;;;;;;;;;;;;;;;;5094150;28;19969;-74
2023/11/07 05:36:16;;;;;;;;;;;;;;;;;;5075967;28;19999;-74
2023/11/07 05:38:43;;;;;;;;;;;;;;;;;;5093816;28;19915;-74
2023/11/07 05:41:09;;;;;;;;;;;;;;;;;;5094091;28;19908;-74
2023/11/07 05:43:35;;;;;;;;;;;;;;;;;;5094148;28;19950;-74
2023/11/07 05:46:02;;;;;;;;;;;;;;;;;;5093664;28;19908;-74
2023/11/07 05:48:28;;;;;;;;;;;;;;;;;;5094045;28;19915;-74
2023/11/07 05:50:54;;;;;;;;;;;;;;;;;;5093481;28;19917;-73
2023/11/07 05:53:20;;;;;;;;;;;;;;;;;;5093948;28;19916;-73
2023/11/07 05:55:46;;;;;;;;;;;;;;;;;;5093911;28;19947;-73
2023/11/07 05:58:12;;;;;;;;;;;;;;;;;;5093613;28;19916;-73
2023/11/07 06:00:39;;;;;;;;;;;;;;;;;;5093916;28;19953;-73
2023/11/07 06:03:05;;;;;;;;;;;;;;;;;;5075821;28;20383;-73
2023/11/07 06:05:31;;;;;;;;;;;;;;;;;;5093524;28;19912;-73
2023/11/07 06:07:57;;;;;;;;;;;;;;;;;;5093837;28;19908;-74
2023/11/07 06:10:23;;;;;;;;;;;;;;;;;;5093318;28;19928;-73
2023/11/07 06:12:49;;;;;;;;;;;;;;;;;;5093394;28;19908;-74
2023/11/07 06:15:15;;;;;;;;;;;;;;;;;;5075369;28;19915;-70
2023/11/07 06:17:41;;;;;;;;;;;;;;;;;;5093793;28;19970;-71
2023/11/07 06:20:08;;;;;;;;;;;;;;;;;;5093274;28;20003;-69
2023/11/07 06:22:34;;;;;;;;;;;;;;;;;;5090010;28;19953;-71
2023/11/07 06:25:00;;;;;;;;;;;;;;;;;;5074357;28;20007;-69
2023/11/07 06:27:26;;;;;;;;;;;;;;;;;;5090853;28;19920;-71
2023/11/07 06:29:52;;;;;;;;;;;;;;;;;;5073200;28;20260;-72
2023/11/07 06:32:18;;;;;;;;;;;;;;;;;;5092816;28;19915;-71
2023/11/07 06:34:44;;;;;;;;;;;;;;;;;;5073966;28;19912;-72
2023/11/07 06:37:10;;;;;;;;;;;;;;;;;;5085045;28;20007;-73
2023/11/07 06:39:36;;;;;;;;;;;;;;;;;;5090896;28;19912;-71
2023/11/07 06:42:03;;;;;;;;;;;;;;;;;;5088387;28;19912;-70
2023/11/07 06:44:28;;;;;;;;;;;;;;;;;;5091318;28;20411;-72
2023/11/07 06:46:55;;;;;;;;;;;;;;;;;;5089970;28;20007;-71
2023/11/07 06:49:21;;;;;;;;;;;;;;;;;;5071599;28;19965;-71
2023/11/07 06:51:47;;;;;;;;;;;;;;;;;;5086043;28;19916;-70
2023/11/07 06:54:13;;;;;;;;;;;;;;;;;;5089155;28;19912;-71
2023/11/07 06:56:39;;;;;;;;;;;;;;;;;;5091005;28;19924;-72
2023/11/07 06:59:05;;;;;;;;;;;;;;;;;;5090386;28;20011;-72
2023/11/07 07:01:32;;;;;;;;;;;;;;;;;;5084270;28;19912;-73
2023/11/07 07:03:58;;;;;;;;;;;;;;;;;;5075900;28;19916;-72
2023/11/07 07:06:24;;;;;;;;;;;;;;;;;;5089046;28;19916;-72
2023/11/07 07:08:50;;;;;;;;;;;;;;;;;;5089026;28;19908;-71
2023/11/07 07:11:16;;;;;;;;;;;;;;;;;;5090013;28;19923;-73
2023/11/07 07:13:42;;;;;;;;;;;;;;;;;;5089144;28;20395;-71
2023/11/07 07:16:08;;;;;;;;;;;;;;;;;;5083846;28;19973;-70
2023/11/07 07:18:34;;;;;;;;;;;;;;;;;;5084594;28;19953;-70
2023/11/07 07:21:00;;;;;;;;;;;;;;;;;;5092240;28;20320;-72
2023/11/07 07:23:28;;;;;;;;;;;;;;;;;;5092774;28;20415;-73
2023/11/07 07:25:55;;;;;;;;;;;;;;;;;;5091564;28;20402;-71
2023/11/07 07:28:21;;;;;;;;;;;;;;;;;;5089633;28;19971;-72
2023/11/07 07:30:50;;;;;;;;;;;;;;;;;;5090671;28;20443;-71
2023/11/07 07:33:18;;;;;;;;;;;;;;;;;;5092217;28;19955;-70
2023/11/07 07:35:45;;;;;;;;;;;;;;;;;;5073446;28;19969;-71
2023/11/07 07:38:11;;;;;;;;;;;;;;;;;;5090827;28;19912;-71
2023/11/07 07:40:38;;;;;;;;;;;;;;;;;;5091825;28;19920;-71
2023/11/07 07:43:09;;;;;;;;;;;;;;;;;;5072535;28;20009;-71
2023/11/07 07:45:35;;;;;;;;;;;;;;;;;;5075258;28;19912;-71
2023/11/07 07:48:06;;;;;;;;;;;;;;;;;;5092831;28;19935;-73
2023/11/07 07:50:32;;;;;;;;;;;;;;;;;;5092666;28;19920;-73
2023/11/07 07:53:01;;;;;;;;;;;;;;;;;;5093515;28;19919;-71
2023/11/07 07:55:27;;;;;;;;;;;;;;;;;;5072390;28;19912;-72
2023/11/07 07:57:53;;;;;;;;;;;;;;;;;;5088896;28;20372;-73
2023/11/07 08:00:24;;;;;;;;;;;;;;;;;;5075773;28;19966;-73
2023/11/07 08:02:51;;;;;;;;;;;;;;;;;;5074724;28;19908;-72
2023/11/07 08:05:17;;;;;;;;;;;;;;;;;;5086981;28;19963;-72
2023/11/07 08:07:43;;;;;;;;;;;;;;;;;;5090892;28;19975;-73
2023/11/07 08:10:22;;;;;;;;;;;;;;;;;;5092371;28;20278;-74
2023/11/07 08:12:49;;;;;;;;;;;;;;;;;;5090374;28;19929;-72
2023/11/07 08:15:16;;;;;;;;;;;;;;;;;;5090347;28;19999;-73
2023/11/07 08:17:43;;;;;;;;;;;;;;;;;;5090283;28;19916;-71
2023/11/07 08:20:15;;;;;;;;;;;;;;;;;;5090516;28;20276;-70
2023/11/07 08:22:41;;;;;;;;;;;;;;;;;;5089932;28;20538;-71
2023/11/07 08:25:10;;;;;;;;;;;;;;;;;;5087468;28;19912;-73
2023/11/07 08:29:12;;;;;;;;;;;;;;;;;;5087335;27;19922;-71
2023/11/07 08:31:38;;;;;;;;;;;;;;;;;;5086747;28;19912;-74
2023/11/07 08:34:04;;;;;;;;;;;;;;;;;;5086803;28;19912;-71
2023/11/07 08:38:38;;;;;;;;;;;;;;;;;;5110686;27;20287;-70
2023/11/07 08:41:04;;;;;;;;;;;;;;;;;;5108581;28;20295;-71
2023/11/07 08:43:31;;;;;;;;;;;;;;;;;;5083915;28;19952;-72
2023/11/07 08:51:37;;;;;;;;;;;;;;;;;;5089331;27;19923;-74
2023/11/07 08:54:03;;;;;;;;;;;;;;;;;;5087890;28;19999;-71
2023/11/07 08:57:32;;;;;;;;;;;;;;;;;;5110682;27;19942;-70
2023/11/07 08:59:58;;;;;;;;;;;;;;;;;;5101825;28;19919;-70
2023/11/07 09:04:58;;;;;;;;;;;;;;;;;;5107615;27;19922;-71
2023/11/07 09:08:55;;;;;;;;;;;;;;;;;;5101644;27;19917;-72
2023/11/07 09:11:20;;;;;;;;;;;;;;;;;;5055222;28;20024;-72
2023/11/07 09:13:46;;;;;;;;;;;;;;;;;;5051155;28;20360;-71
2023/11/07 09:17:26;;;;;;;;;;;;;;;;;;5090524;27;19916;-72
2023/11/07 09:19:52;;;;;;;;;;;;;;;;;;5090869;28;19912;-73
2023/11/07 09:22:18;;;;;;;;;;;;;;;;;;5075593;28;20365;-72
2023/11/07 09:26:03;;;;;;;;;;;;;;;;;;5090630;27;19930;-71
2023/11/07 09:28:29;;;;;;;;;;;;;;;;;;5105183;28;19912;-72
2023/11/07 09:30:57;;;;;;;;;;;;;;;;;;5089183;28;20315;-72
2023/11/07 09:33:23;;;;;;;;;;;;;;;;;;5090120;28;19955;-72
2023/11/07 09:38:11;;;;;;;;;;;;;;;;;;5090064;27;19920;-71
2023/11/07 09:48:21;;;;;;;;;;;;;;;;;;5084302;27;19919;-73
2023/11/07 09:52:41;;;;;;;;;;;;;;;;;;5085514;27;19920;-73
2023/11/07 09:56:14;;;;;;;;;;;;;;;;;;5106958;27;19922;-75
2023/11/07 09:58:41;;;;;;;;;;;;;;;;;;5106816;28;19912;-74
2023/11/07 10:01:07;;;;;;;;;;;;;;;;;;5106019;28;19965;-71
2023/11/07 10:06:03;;;;;;;;;;;;;;;;;;5128883;27;19931;-72
2023/11/07 10:11:00;;;;;;;;;;;;;;;;;;5088601;27;19916;-71
2023/11/07 10:15:47;;;;;;;;;;;;;;;;;;5129066;27;20354;-77
2023/11/07 10:19:28;;;;;;;;;;;;;;;;;;5110170;27;19916;-73
2023/11/07 10:21:54;;;;;;;;;;;;;;;;;;5110893;28;19918;-71
2023/11/07 10:24:20;;;;;;;;;;;;;;;;;;5110415;28;19912;-77
2023/11/07 10:26:48;;;;;;;;;;;;;;;;;;5103861;28;19966;-73
2023/11/07 10:29:14;;;;;;;;;;;;;;;;;;5122756;27;19965;-74
2023/11/07 10:31:43;;;;;;;;;;;;;;;;;;5107757;28;19908;-76
2023/11/07 10:34:09;;;;;;;;;;;;;;;;;;5107591;28;19912;-74
2023/11/07 10:38:36;;;;;;;;;;;;;;;;;;5109241;27;19920;-71
2023/11/07 10:41:15;;;;;;;;;;;;;;;;;;5068496;28;19927;-70
2023/11/07 10:43:41;;;;;;;;;;;;;;;;;;5068054;28;19916;-72
2023/11/07 10:46:08;;;;;;;;;;;;;;;;;;5064889;28;19908;-68
2023/11/07 10:48:37;;;;;;;;;;;;;;;;;;5065702;28;20331;-69
2023/11/07 10:51:58;;;;;;;;;;;;;;;;;;5108100;27;19916;-70
2023/11/07 10:54:46;;;;;;;;;;;;;;;;;;5107253;27;19912;-70
2023/11/07 10:57:12;;;;;;;;;;;;;;;;;;5088861;28;19930;-72
2023/11/07 11:01:07;;;;;;;;;;;;;;;;;;5147746;27;19912;-71
2023/11/07 11:04:57;;;;;;;;;;;;;;;;;;5021382;28;19936;-74
2023/11/07 11:07:23;;;;;;;;;;;;;;;;;;5022564;28;19921;-70
2023/11/07 11:09:49;;;;;;;;;;;;;;;;;;5024893;28;19925;-70
2023/11/07 11:12:16;;;;;;;;;;;;;;;;;;5024737;28;19910;-71
2023/11/07 11:14:43;;;;;;;;;;;;;;;;;;5034864;28;19918;-70
2023/11/07 11:17:09;;;;;;;;;;;;;;;;;;5029655;28;19924;-71
2023/11/07 11:20:55;;;;;;;;;;;;;;;;;;5108941;27;19920;-68
2023/11/07 11:23:21;;;;;;;;;;;;;;;;;;5121375;28;19918;-69
2023/11/07 11:25:47;;;;;;;;;;;;;;;;;;5124471;27;19912;-69
2023/11/07 11:28:13;;;;;;;;;;;;;;;;;;5104825;27;19961;-67
2023/11/07 11:32:01;;;;;;;;;;;;;;;;;;5063414;28;19927;-67
2023/11/07 11:34:28;;;;;;;;;;;;;;;;;;5053922;28;20413;-72
2023/11/07 11:36:56;;;;;;;;;;;;;;;;;;5098263;28;19909;-70
2023/11/07 11:39:22;;;;;;;;;;;;;;;;;;5061669;28;19924;-71
2023/11/07 11:41:51;;;;;;;;;;;;;;;;;;5065161;28;19913;-70
2023/11/07 11:44:16;;;;;;;;;;;;;;;;;;5050981;28;19913;-67
2023/11/07 11:46:43;;;;;;;;;;;;;;;;;;5040034;28;19920;-71
2023/11/07 11:51:36;;;;;;;;;;;;;;;;;;5064783;27;19947;-69
2023/11/07 11:54:03;;;;;;;;;;;;;;;;;;5051403;28;20000;-67
2023/11/07 11:56:29;;;;;;;;;;;;;;;;;;5053148;28;19921;-68
2023/11/07 11:58:55;;;;;;;;;;;;;;;;;;5048828;28;20311;-69
2023/11/07 12:01:22;;;;;;;;;;;;;;;;;;5060629;28;20008;-70
2023/11/07 12:05:06;;;;;;;;;;;;;;;;;;5066932;28;19917;-69
2023/11/07 12:07:32;;;;;;;;;;;;;;;;;;5048945;28;19913;-70
2023/11/07 12:10:00;;;;;;;;;;;;;;;;;;5048413;28;19909;-70
2023/11/07 12:12:26;;;;;;;;;;;;;;;;;;5047688;28;19913;-69
2023/11/07 12:14:52;;;;;;;;;;;;;;;;;;5043666;28;19917;-70
2023/11/07 12:17:18;;;;;;;;;;;;;;;;;;5050037;28;19967;-69
2023/11/07 12:19:44;;;;;;;;;;;;;;;;;;5065392;28;19995;-69
2023/11/07 12:22:10;;;;;;;;;;;;;;;;;;5069173;28;19909;-69
2023/11/07 12:24:36;;;;;;;;;;;;;;;;;;5067239;28;19921;-69
2023/11/07 12:27:02;;;;;;;;;;;;;;;;;;5068881;28;19962;-71
2023/11/07 12:29:28;;;;;;;;;;;;;;;;;;5068047;28;19913;-69
2023/11/07 12:32:30;;;;;;;;;;;;;;;;;;5080484;28;20377;-70
2023/11/07 12:35:56;;;;;;;;;;;;;;;;;;5129786;27;19916;-68
2023/11/07 12:38:22;;;;;;;;;;;;;;;;;;5129814;27;19912;-69
2023/11/07 12:40:48;;;;;;;;;;;;;;;;;;5131001;28;19914;-71
2023/11/07 12:43:15;;;;;;;;;;;;;;;;;;5128232;28;19959;-70
2023/11/07 12:45:41;;;;;;;;;;;;;;;;;;5129992;27;19918;-71
2023/11/07 12:48:09;;;;;;;;;;;;;;;;;;5127792;28;20011;-73
2023/11/07 12:50:35;;;;;;;;;;;;;;;;;;5107871;27;20007;-72
2023/11/07 12:53:04;;;;;;;;;;;;;;;;;;5106480;27;19923;-71
2023/11/07 12:55:31;;;;;;;;;;;;;;;;;;5104364;28;19923;-70
2023/11/07 12:57:57;;;;;;;;;;;;;;;;;;5105736;28;19912;-70
2023/11/07 13:00:24;;;;;;;;;;;;;;;;;;5115324;28;19916;-69
2023/11/07 13:02:50;;;;;;;;;;;;;;;;;;5108350;28;19908;-68
2023/11/07 13:05:16;;;;;;;;;;;;;;;;;;5112354;28;19911;-69
2023/11/07 13:07:42;;;;;;;;;;;;;;;;;;5128642;28;19936;-68
2023/11/07 13:10:09;;;;;;;;;;;;;;;;;;5116923;27;21333;-70
2023/11/07 13:12:35;;;;;;;;;;;;;;;;;;5110262;28;19912;-69
2023/11/07 13:15:01;;;;;;;;;;;;;;;;;;5108948;28;19916;-69
2023/11/07 13:19:44;;;;;;;;;;;;;;;;;;5109325;27;19926;-72
2023/11/07 13:22:12;;;;;;;;;;;;;;;;;;5108172;28;19912;-70
2023/11/07 13:24:38;;;;;;;;;;;;;;;;;;5112089;28;19911;-71
2023/11/07 13:27:05;;;;;;;;;;;;;;;;;;5114774;27;19999;-70
2023/11/07 13:29:31;;;;;;;;;;;;;;;;;;5107786;28;19908;-70
2023/11/07 13:31:57;;;;;;;;;;;;;;;;;;5108083;28;19991;-70
2023/11/07 13:34:23;;;;;;;;;;;;;;;;;;5108424;28;20420;-70
2023/11/07 13:36:52;;;;;;;;;;;;;;;;;;5108688;28;19912;-70
2023/11/07 13:39:23;;;;;;;;;;;;;;;;;;5109203;28;19923;-70
2023/11/07 13:41:49;;;;;;;;;;;;;;;;;;5109540;28;19918;-72
2023/11/07 13:44:15;;;;;;;;;;;;;;;;;;5109233;28;20359;-71
2023/11/07 13:46:42;;;;;;;;;;;;;;;;;;5096594;28;19913;-71
2023/11/07 13:49:11;;;;;;;;;;;;;;;;;;5097173;28;19964;-72
2023/11/07 13:51:38;;;;;;;;;;;;;;;;;;5099880;28;19961;-70
2023/11/07 13:54:04;;;;;;;;;;;;;;;;;;5106677;28;20455;-72
2023/11/07 13:56:30;;;;;;;;;;;;;;;;;;5107746;28;20006;-74
2023/11/07 13:58:58;;;;;;;;;;;;;;;;;;5107543;28;19916;-75
2023/11/07 14:01:24;;;;;;;;;;;;;;;;;;5108910;28;20398;-74
2023/11/07 14:03:50;;;;;;;;;;;;;;;;;;5109665;28;19908;-75
2023/11/07 14:06:17;;;;;;;;;;;;;;;;;;5110459;28;19914;-75
2023/11/07 14:08:43;;;;;;;;;;;;;;;;;;5110737;28;19908;-75
2023/11/07 14:11:10;;;;;;;;;;;;;;;;;;5110483;28;19915;-75
2023/11/07 14:13:36;;;;;;;;;;;;;;;;;;5108754;28;19998;-75
2023/11/07 14:16:02;;;;;;;;;;;;;;;;;;5109784;28;20006;-75
2023/11/07 14:18:28;;;;;;;;;;;;;;;;;;5109274;28;19943;-75
2023/11/07 14:20:57;;;;;;;;;;;;;;;;;;5108047;28;19908;-75
2023/11/07 14:23:23;;;;;;;;;;;;;;;;;;5107834;28;19967;-75
2023/11/07 14:25:49;;;;;;;;;;;;;;;;;;5107881;28;19934;-75
2023/11/07 14:28:15;;;;;;;;;;;;;;;;;;5108543;28;19961;-75
2023/11/07 14:30:44;;;;;;;;;;;;;;;;;;5096482;28;19912;-75
2023/11/07 14:33:10;;;;;;;;;;;;;;;;;;5094508;28;20303;-75
2023/11/07 14:37:29;;;;;;;;;;;;;;;;;;5111581;27;19916;-75
2023/11/07 14:39:56;;;;;;;;;;;;;;;;;;5109229;28;19918;-75
2023/11/07 14:42:22;;;;;;;;;;;;;;;;;;5109528;28;20372;-75
2023/11/07 14:44:48;;;;;;;;;;;;;;;;;;5109228;28;19915;-75
2023/11/07 14:47:14;;;;;;;;;;;;;;;;;;5109120;28;19969;-75
2023/11/07 14:49:54;;;;;;;;;;;;;;;;;;5089593;27;19917;-74
2023/11/07 14:52:20;;;;;;;;;;;;;;;;;;5089588;28;20019;-75
2023/11/07 14:54:46;;;;;;;;;;;;;;;;;;5090924;28;19915;-75
2023/11/07 14:58:05;;;;;;;;;;;;;;;;;;5092042;27;19922;-74
2023/11/07 15:01:57;;;;;;;;;;;;;;;;;;5112150;27;19916;-74
2023/11/07 15:06:01;;;;;;;;;;;;;;;;;;5132307;27;19912;-74
2023/11/07 15:08:27;;;;;;;;;;;;;;;;;;5131747;28;20014;-74
2023/11/07 15:10:53;;;;;;;;;;;;;;;;;;5132032;27;19912;-74
2023/11/07 15:13:55;;;;;;;;;;;;;;;;;;5152668;27;20010;-73
2023/11/07 15:18:24;;;;;;;;;;;;;;;;;;5092218;28;19912;-73
2023/11/07 15:20:50;;;;;;;;;;;;;;;;;;5090927;28;19913;-74
2023/11/07 15:23:17;;;;;;;;;;;;;;;;;;5091170;28;20376;-74
2023/11/07 15:27:58;;;;;;;;;;;;;;;;;;5091585;27;20299;-74
2023/11/07 15:33:31;;;;;;;;;;;;;;;;;;5092177;27;19916;-74
2023/11/07 15:38:13;;;;;;;;;;;;;;;;;;5091827;27;19922;-74
2023/11/07 15:41:56;;;;;;;;;;;;;;;;;;5091127;28;19916;-75
2023/11/07 15:47:56;;;;;;;;;;;;;;;;;;5111579;27;19912;-76
2023/11/07 15:56:57;;;;;;;;;;;;;;;;;;5091154;27;19916;-75
2023/11/07 16:02:06;;;;;;;;;;;;;;;;;;5153200;27;20014;-73
2023/11/07 16:04:32;;;;;;;;;;;;;;;;;;5152421;27;20006;-74
2023/11/07 16:06:59;;;;;;;;;;;;;;;;;;5152866;27;19907;-74
2023/11/07 16:09:25;;;;;;;;;;;;;;;;;;5152880;27;20340;-74
2023/11/07 16:11:50;;;;;;;;;;;;;;;;;;5152413;27;19932;-74
2023/11/07 16:14:17;;;;;;;;;;;;;;;;;;5134327;27;19913;-74
2023/11/07 16:22:41;;;;;;;;;;;;;;;;;;5173930;27;19911;-74
2023/11/07 16:25:07;;;;;;;;;;;;;;;;;;5173318;27;20003;-74
2023/11/07 16:27:33;;;;;;;;;;;;;;;;;;5154986;27;20386;-74
2023/11/07 16:29:59;;;;;;;;;;;;;;;;;;5154914;27;20390;-74
2023/11/07 16:32:37;;;;;;;;;;;;;;;;;;5091060;27;19923;-74
2023/11/07 16:46:56;;;;;;;;;;;;;;;;;;5091004;27;19939;-75
2023/11/07 16:53:12;;;;;;;;;;;;;;;;;;5091234;27;19922;-75
2023/11/07 16:55:38;;;;;;;;;;;;;;;;;;5091571;28;19912;-74
2023/11/07 16:58:05;;;;;;;;;;;;;;;;;;5089972;28;20325;-76
2023/11/07 17:00:31;;;;;;;;;;;;;;;;;;5090879;28;19915;-75
2023/11/07 17:02:57;;;;;;;;;;;;;;;;;;5089954;28;19909;-75
2023/11/07 17:05:23;;;;;;;;;;;;;;;;;;5091206;28;19912;-76
2023/11/07 17:07:50;;;;;;;;;;;;;;;;;;5090891;28;20285;-76
2023/11/07 17:10:16;;;;;;;;;;;;;;;;;;5091438;28;20388;-74
2023/11/07 17:12:42;;;;;;;;;;;;;;;;;;5089683;28;20136;-75
2023/11/07 17:15:08;;;;;;;;;;;;;;;;;;5090713;28;20266;-75
2023/11/07 17:17:34;;;;;;;;;;;;;;;;;;5090979;28;19916;-74
2023/11/07 17:20:00;;;;;;;;;;;;;;;;;;5090569;28;20323;-75
2023/11/07 17:22:26;;;;;;;;;;;;;;;;;;5090348;28;19954;-74
2023/11/07 17:24:52;;;;;;;;;;;;;;;;;;5090746;28;19917;-75
2023/11/07 17:27:18;;;;;;;;;;;;;;;;;;5090332;28;19908;-74
2023/11/07 17:29:44;;;;;;;;;;;;;;;;;;5090647;28;19908;-74
2023/11/07 17:32:09;;;;;;;;;;;;;;;;;;5090686;28;20413;-73
2023/11/07 17:34:36;;;;;;;;;;;;;;;;;;5090433;28;20413;-74
2023/11/07 17:37:03;;;;;;;;;;;;;;;;;;5090550;28;19916;-74
2023/11/07 17:39:29;;;;;;;;;;;;;;;;;;5090580;28;19910;-74
2023/11/07 17:41:55;;;;;;;;;;;;;;;;;;5089928;28;20244;-74
2023/11/07 17:44:22;;;;;;;;;;;;;;;;;;5090550;28;20291;-74
2023/11/07 17:46:48;;;;;;;;;;;;;;;;;;5090328;28;19931;-74
2023/11/07 17:49:18;;;;;;;;;;;;;;;;;;5090185;28;20367;-73
2023/11/07 17:51:44;;;;;;;;;;;;;;;;;;5098383;28;19924;-74
2023/11/07 17:54:10;;;;;;;;;;;;;;;;;;5110526;28;19908;-74
2023/11/07 17:56:36;;;;;;;;;;;;;;;;;;5110129;28;19919;-73
2023/11/07 17:59:03;;;;;;;;;;;;;;;;;;5110423;28;19912;-74
2023/11/07 18:01:29;;;;;;;;;;;;;;;;;;5110476;28;19908;-74
2023/11/07 18:03:55;;;;;;;;;;;;;;;;;;5099887;28;19908;-74
2023/11/07 18:06:21;;;;;;;;;;;;;;;;;;5078612;28;19947;-74
2023/11/07 18:08:47;;;;;;;;;;;;;;;;;;5096691;28;19947;-74
2023/11/07 18:11:13;;;;;;;;;;;;;;;;;;5096076;28;19962;-74
2023/11/07 18:13:39;;;;;;;;;;;;;;;;;;5096504;28;19912;-74
2023/11/07 18:16:05;;;;;;;;;;;;;;;;;;5096522;28;20371;-74
2023/11/07 18:18:31;;;;;;;;;;;;;;;;;;5095981;28;20261;-74
2023/11/07 18:20:59;;;;;;;;;;;;;;;;;;5096474;28;20049;-74
2023/11/07 18:23:25;;;;;;;;;;;;;;;;;;5096068;28;19931;-74
2023/11/07 18:25:51;;;;;;;;;;;;;;;;;;5078188;28;19988;-74
2023/11/07 18:28:18;;;;;;;;;;;;;;;;;;5096451;28;19998;-74